Shen Hang 935 — BXGY — position and weather

sailwx.info

Track history (hours):
 
Tides and Currents Weather Stations Pressure Air Temp Water Temp Dewpoint Dewpoint Depression Visibility Wind Speed Wind Dir Waves Ship Positions

Shen Hang 935

Last reported at 2015-Mar-30 01:15 UTC. Time now 2015-Mar-30 04:29 UTC.
Position N 22°34' E 114°15'.

Length 49 m; draft 2.6 m.

Type: Ship. MMSI: 412466550.

Date/timePositionNaut miles runAvg speedWind from/ knotsBaromVisibWave heightAir tempDewpointWater temp
2015-Mar-30 01:15N 22°34' E 114°15'0 0.0
2015-Mar-30 00:27N 22°34' E 114°15'0 0.0
2015-Mar-29 23:15N 22°34' E 114°15'0 0.1
2015-Mar-29 22:15N 22°34' E 114°15'0 0.0
2015-Mar-29 19:21N 22°34' E 114°15'0 0.0
2015-Mar-29 14:33N 22°34' E 114°15'17 3.2
2015-Mar-29 09:26N 22°18' E 114°13'5 5.8
2015-Mar-29 08:33N 22°18' E 114°08'1 0.0
2015-Mar-28 12:08N 22°19' E 114°07'4 6.2
2015-Mar-28 11:33N 22°17' E 114°10'17 2.8
2015-Mar-28 05:25N 22°34' E 114°15'0 0.0
2015-Mar-28 03:06N 22°34' E 114°15'0 0.1
2015-Mar-28 02:06N 22°34' E 114°15'0 0.1
2015-Mar-28 01:25N 22°34' E 114°15'16 2.8
2015-Mar-27 19:33N 22°18' E 114°12'6 5.6
2015-Mar-27 18:33N 22°19' E 114°06'  
2015-Mar-25 04:24N 23°01' E 113°31'2 0.8
2015-Mar-25 01:23N 23°03' E 113°32'1 0.0
2015-Mar-24 04:29N 23°03' E 113°31'0 0.1
2015-Mar-24 03:29N 23°03' E 113°31'0 0.1
2015-Mar-24 02:23N 23°03' E 113°31'0 0.1
2015-Mar-24 01:29N 23°03' E 113°31'0 0.0
2015-Mar-24 00:11N 23°03' E 113°31'0 0.0
2015-Mar-23 22:23N 23°03' E 113°31'0 0.0
2015-Mar-23 21:21N 23°03' E 113°31'0 0.0
2015-Mar-23 20:19N 23°03' E 113°31'43 6.1
2015-Mar-23 13:23N 22°26' E 113°53'17 1.9
2015-Mar-23 04:27N 22°18' E 114°09'5 5.8
2015-Mar-23 03:33N 22°17' E 114°15'17 3.2
2015-Mar-22 22:15N 22°34' E 114°15'0 0.0
2015-Mar-22 21:33N 22°34' E 114°15'0 0.0
2015-Mar-22 20:33N 22°34' E 114°15'0 0.0
2015-Mar-22 19:33N 22°34' E 114°15'0 0.0
2015-Mar-22 18:33N 22°34' E 114°15'0 0.0
2015-Mar-22 17:32N 22°34' E 114°15'0 0.0
2015-Mar-22 16:33N 22°34' E 114°15'0 0.0
2015-Mar-22 15:31N 22°34' E 114°15'0 0.0
2015-Mar-22 14:32N 22°34' E 114°15'0 0.0
2015-Mar-22 13:30N 22°34' E 114°15'0 0.1
2015-Mar-22 12:11N 22°34' E 114°15'0 0.0
2015-Mar-22 11:30N 22°34' E 114°15'0 0.0
2015-Mar-22 10:27N 22°34' E 114°15'0 0.0
2015-Mar-22 09:31N 22°34' E 114°15'0 0.0
2015-Mar-22 08:25N 22°34' E 114°15'0 0.0
2015-Mar-22 07:33N 22°34' E 114°15'0 0.0
2015-Mar-22 06:31N 22°34' E 114°15'0 0.0
2015-Mar-22 05:32N 22°34' E 114°15'0 0.0
2015-Mar-22 04:20N 22°34' E 114°15'0 0.0
2015-Mar-22 03:31N 22°34' E 114°15'0 0.0
2015-Mar-22 02:31N 22°34' E 114°15'0 0.0
2015-Mar-22 01:30N 22°34' E 114°15'0 0.0
2015-Mar-22 00:31N 22°34' E 114°15'0 0.0
2015-Mar-21 23:31N 22°34' E 114°15'0 0.1
2015-Mar-21 22:33N 22°34' E 114°15'17 3.4
2015-Mar-21 17:33N 22°17' E 114°14'  
Track history (hours):
 
Tides and Currents Weather Stations Pressure Air Temp Water Temp Dewpoint Dewpoint Depression Visibility Wind Speed Wind Dir Waves Ship Positions

Shen Hang 935

Last reported at 2015-Mar-30 01:15 UTC. Time now 2015-Mar-30 04:29 UTC.
Position N 22°34' E 114°15'.

Length 49 m; draft 2.6 m.

Type: Ship. MMSI: 412466550.

Date/timePositionNaut miles runAvg speedWind from/ knotsBaromVisibWave heightAir tempDewpointWater temp
2015-Mar-30 01:15N 22°34' E 114°15'0 0.0
2015-Mar-30 00:27N 22°34' E 114°15'0 0.0
2015-Mar-29 23:15N 22°34' E 114°15'0 0.1
2015-Mar-29 22:15N 22°34' E 114°15'0 0.0
2015-Mar-29 19:21N 22°34' E 114°15'0 0.0
2015-Mar-29 14:33N 22°34' E 114°15'17 3.2
2015-Mar-29 09:26N 22°18' E 114°13'5 5.8
2015-Mar-29 08:33N 22°18' E 114°08'1 0.0
2015-Mar-28 12:08N 22°19' E 114°07'4 6.2
2015-Mar-28 11:33N 22°17' E 114°10'17 2.8
2015-Mar-28 05:25N 22°34' E 114°15'0 0.0
2015-Mar-28 03:06N 22°34' E 114°15'0 0.1
2015-Mar-28 02:06N 22°34' E 114°15'0 0.1
2015-Mar-28 01:25N 22°34' E 114°15'16 2.8
2015-Mar-27 19:33N 22°18' E 114°12'6 5.6
2015-Mar-27 18:33N 22°19' E 114°06'  
2015-Mar-25 04:24N 23°01' E 113°31'2 0.8
2015-Mar-25 01:23N 23°03' E 113°32'1 0.0
2015-Mar-24 04:29N 23°03' E 113°31'0 0.1
2015-Mar-24 03:29N 23°03' E 113°31'0 0.1
2015-Mar-24 02:23N 23°03' E 113°31'0 0.1
2015-Mar-24 01:29N 23°03' E 113°31'0 0.0
2015-Mar-24 00:11N 23°03' E 113°31'0 0.0
2015-Mar-23 22:23N 23°03' E 113°31'0 0.0
2015-Mar-23 21:21N 23°03' E 113°31'0 0.0
2015-Mar-23 20:19N 23°03' E 113°31'43 6.1
2015-Mar-23 13:23N 22°26' E 113°53'17 1.9
2015-Mar-23 04:27N 22°18' E 114°09'5 5.8
2015-Mar-23 03:33N 22°17' E 114°15'17 3.2
2015-Mar-22 22:15N 22°34' E 114°15'0 0.0
2015-Mar-22 21:33N 22°34' E 114°15'0 0.0
2015-Mar-22 20:33N 22°34' E 114°15'0 0.0
2015-Mar-22 19:33N 22°34' E 114°15'0 0.0
2015-Mar-22 18:33N 22°34' E 114°15'0 0.0
2015-Mar-22 17:32N 22°34' E 114°15'0 0.0
2015-Mar-22 16:33N 22°34' E 114°15'0 0.0
2015-Mar-22 15:31N 22°34' E 114°15'0 0.0
2015-Mar-22 14:32N 22°34' E 114°15'0 0.0
2015-Mar-22 13:30N 22°34' E 114°15'0 0.1
2015-Mar-22 12:11N 22°34' E 114°15'0 0.0
2015-Mar-22 11:30N 22°34' E 114°15'0 0.0
2015-Mar-22 10:27N 22°34' E 114°15'0 0.0
2015-Mar-22 09:31N 22°34' E 114°15'0 0.0
2015-Mar-22 08:25N 22°34' E 114°15'0 0.0
2015-Mar-22 07:33N 22°34' E 114°15'0 0.0
2015-Mar-22 06:31N 22°34' E 114°15'0 0.0
2015-Mar-22 05:32N 22°34' E 114°15'0 0.0
2015-Mar-22 04:20N 22°34' E 114°15'0 0.0
2015-Mar-22 03:31N 22°34' E 114°15'0 0.0
2015-Mar-22 02:31N 22°34' E 114°15'0 0.0
2015-Mar-22 01:30N 22°34' E 114°15'0 0.0
2015-Mar-22 00:31N 22°34' E 114°15'0 0.0
2015-Mar-21 23:31N 22°34' E 114°15'0 0.1
2015-Mar-21 22:33N 22°34' E 114°15'17 3.4
2015-Mar-21 17:33N 22°17' E 114°14'  

Dump ship's entire track history